ADDS METAR Data INFO
IDs: Format: Raw Decoded Include TAF

Data at: 0459 UTC 23 May 2017

KARM 230435Z AUTO 01005KT 10SM OVC011 21/18 A2989 RMK AO2 T02070181
KARM 230415Z AUTO 01008KT 10SM OVC011 21/18 A2989 RMK AO2 T02100183
KARM 230355Z AUTO 36009KT 10SM BKN011 21/19 A2988 RMK AO2 T02100185
KARM 230335Z AUTO 01006KT 10SM CLR 21/18 A2987 RMK AO2 T02070183
KARM 230315Z AUTO 36005KT 10SM CLR 21/19 A2987 RMK AO2 T02120189
KARM 230255Z AUTO 36007KT 10SM SCT014 22/19 A2987 RMK AO2 P0001 60001 T02160192
KARM 230235Z AUTO 36006KT 10SM SCT014 22/19 A2986 RMK AO2 P0001 T02180193
KARM 230215Z AUTO 01005KT 10SM SCT014 22/20 A2986 RMK AO2 T02220195
KARM 230155Z AUTO 36005KT 10SM SCT014 SCT023 22/20 A2986 RMK AO2 T02210198
KARM 230135Z AUTO 36004KT 10SM CLR 22/20 A2986 RMK AO2 T02230197
KARM 230115Z AUTO 02004KT 10SM SCT023 SCT030 23/20 A2986 RMK AO2 T02300198
KARM 230055Z AUTO 36006KT 10SM OVC021 24/20 A2985 RMK AO2 T02370200
KARM 230035Z AUTO 01007KT 10SM OVC019 24/20 A2985 RMK AO2 T02400202
KARM 230015Z AUTO 36006KT 10SM OVC021 24/20 A2985 RMK AO2 T02430203
KARM 222355Z AUTO 35005KT 10SM BKN015 OVC021 25/20 A2985 RMK AO2 LTG DSNT NW 60018 T02450203 10271 20244
KARM 222335Z AUTO 02005KT 10SM OVC017 25/20 A2986 RMK AO2 T02460204
KARM 222315Z AUTO 03005KT 10SM BKN015 26/20 A2986 RMK AO2 T02560204
KARM 222255Z AUTO 36007KT 10SM SCT015 26/20 A2986 RMK AO2 P0003 T02580204
KARM 222235Z AUTO 36008KT 10SM SCT017 SCT100 26/21 A2987 RMK AO2 P0002 T02550205
KARM 222215Z AUTO 01008KT 10SM OVC017 26/21 A2987 RMK AO2 P0002 T02550207
KARM 222155Z AUTO 36008KT 10SM OVC017 26/21 A2988 RMK AO2 P0001 T02550206
KARM 222135Z AUTO 35008KT 10SM SCT017 SCT023 SCT090 26/21 A2988 RMK AO2 P0001 T02550206
KARM 222115Z AUTO 36008KT 10SM SCT015 SCT021 BKN085 26/21 A2988 RMK AO2 T02570208
KARM 222055Z AUTO 36005KT 10SM BKN021 OVC028 26/21 A2989 RMK AO2 P0003 60014 T02570210
KARM 222035Z AUTO 34007KT 10SM SCT016 BKN021 BKN028 25/21 A2990 RMK AO2 P0003 T02500207
KARM 222015Z AUTO 34009KT 10SM OVC016 26/21 A2990 RMK AO2 T02560211
KARM 221955Z AUTO 34007KT 10SM SCT016 BKN021 BKN033 26/21 A2990 RMK AO2 P0005 T02550211
KARM 221935Z AUTO 00000KT 10SM SCT012 BKN019 BKN026 25/21 A2991 RMK AO2 P0004 T02520212
KARM 221915Z AUTO 00000KT 10SM BKN014 BKN023 OVC029 25/21 A2992 RMK AO2 P0001 T02490211
KARM 221855Z AUTO 00000KT 10SM SCT014 BKN019 OVC029 25/21 A2993 RMK AO2 P0006 T02490214
KARM 221835Z AUTO 34004KT 10SM OVC021 27/21 A2993 RMK AO2 P0004 T02660213
KARM 221815Z AUTO 11004KT 10SM BKN019 BKN025 BKN032 27/21 A2994 RMK AO2 P0002 T02660212
KARM 221755Z AUTO 00000KT 10SM BKN019 BKN028 BKN055 27/22 A2995 RMK AO2 P0007 60084 T02670216 10267 20225
KARM 221735Z AUTO 14003KT 10SM OVC019 26/21 A2996 RMK AO2 LTG DSNT S P0005 T02600212
KARM 221715Z AUTO 15006KT 10SM OVC017 26/21 A2996 RMK AO2 P0002 T02590211
KARM 221655Z AUTO 20004KT 10SM BKN015 26/21 A2997 RMK AO2 P0011 T02560211
KARM 221635Z AUTO 17005KT 10SM BKN015 25/21 A2997 RMK AO2 P0008 T02500211
KARM 221615Z AUTO 15004KT 10SM BKN013 25/21 A2996 RMK AO2 P0004 T02460212
KARM 221555Z AUTO 17003KT 10SM SCT011 SCT090 24/21 A2997 RMK AO2 P0015 T02430214
KARM 221535Z AUTO 15008KT 10SM SCT011 24/22 A2996 RMK AO2 P0011 T02370216
KARM 221515Z AUTO 15011KT 10SM SCT011 24/22 A2996 RMK AO2 P0005 T02360216
KARM 221455Z AUTO 13012KT 10SM -RA SCT007 SCT021 SCT028 23/22 A2996 RMK AO2 P0015 60051 T02340220
KARM 221435Z AUTO 12012KT 10SM -RA SCT007 SCT023 SCT031 23/22 A2995 RMK AO2 P0010 T02310220
KARM 221415Z AUTO 12009KT 10SM -RA SCT007 SCT012 BKN021 23/22 A2996 RMK AO2 P0003 T02280218
KARM 221355Z AUTO 11008KT 10SM RA SCT008 BKN012 OVC027 23/22 A2995 RMK AO2 P0019 T02270217
KARM 221335Z AUTO 10005KT 5SM -RA SCT017 BKN028 BKN037 23/22 A2997 RMK AO2 P0013 T02270217
KARM 221315Z AUTO 00000KT 4SM -RA SCT045 SCT055 23/22 A2997 RMK AO2 LTG DSNT SE AND S P0006 T02270217
KARM 221255Z AUTO 00000KT 1SM +RA BKN005 BKN017 BKN024 23/22 A2998 RMK AO2 LTG DSNT E P0017 T02260215
KARM 221235Z AUTO 00000KT 3SM RA SCT019 BKN032 OVC043 23/22 A2998 RMK AO2 LTG DSNT SE P0010 T02250215
KARM 221215Z AUTO 07003KT 4SM RA SCT017 BKN036 OVC044 23/21 A2998 RMK AO2 LTG DSNT S P0004 T02250214
KARM 221155Z AUTO 08004KT 3SM RA SCT012 BKN026 OVC032 23/21 A2998 RMK AO2 LTG DSNT S P0008 6//// 7//// T02250212
KARM 221135Z AUTO 09004KT 5SM -RA SCT009 BKN022 OVC033 23/21 A2996 RMK AO2 LTG DSNT S P0003 T02250211
KARM 221115Z AUTO 06006KT 3SM +TSRA BKN009 BKN014 OVC019 22/21 A2996 RMK AO2 LTG DSNT ALQS P0001 T02240210
KARM 221055Z AUTO 32004KT 10SM -TSRA BKN013 BKN025 OVC060 A2997 RMK AO2 LTG DSNT ALQS P0007
KARM 221035Z AUTO 10006KT 10SM -VCTSRA SCT013 BKN027 OVC050 22/21 A2994 RMK AO2 LTG DSNT ALQS P0005 T02230210
KARM 221015Z AUTO 07006KT 7SM -VCTSRA SCT011 SCT014 BKN022 22/21 A2995 RMK AO2 LTG DSNT E SW AND W P0003 T02220207
KARM 220955Z AUTO 06006KT 5SM -RA SCT011 BKN017 22/21 A2996 RMK AO2 LTG DSNT E THRU SW P0001 T02230206
KARM 220935Z AUTO 06005KT 10SM OVC010 22/21 A2996 RMK AO2 LTG DSNT ALQS T02230205
KARM 220915Z AUTO 05004KT 10SM VCTS OVC012 22/21 A2996 RMK AO2 LTG DSNT SE THRU W T02220205
KARM 220855Z AUTO 03007KT 10SM -RA BKN012 OVC020 22/21 A2995 RMK AO2 LTG DSNT SE THRU W 60001 T02220205
KARM 220835Z AUTO 04005KT 10SM BKN012 BKN018 OVC060 23/21 A2997 RMK AO2 LTG DSNT SE THRU SW T02250206
KARM 220815Z AUTO 04005KT 10SM SCT014 SCT020 BKN042 22/21 A2997 RMK AO2 LTG DSNT SE AND S T02230205
KARM 220755Z AUTO 03007KT 10SM SCT033 SCT042 SCT065 22/21 A2998 RMK AO2 LTG DSNT SE AND S P0001 T02240206
KARM 220735Z AUTO 05006KT 10SM SCT013 BKN022 BKN033 22/21 A2998 RMK AO2 LTG DSNT SE AND SW P0001 T02230206
KARM 220715Z AUTO 06006KT 10SM BKN013 BKN021 OVC046 22/21 A3000 RMK AO2 LTG DSNT SE P0001 T02230206
KARM 220655Z AUTO 06007KT 10SM BKN009 BKN014 OVC055 22/21 A3000 RMK AO2 T02220205
KARM 220635Z AUTO 06008KT 10SM OVC009 22/20 A3000 RMK AO2 T02210204
KARM 220615Z AUTO 04007KT 10SM -DZ OVC011 22/20 A3000 RMK AO2 T02200201
KARM 220555Z AUTO 03007KT 10SM -RA BKN013 BKN020 OVC029 22/20 A3001 RMK AO2 P0004 60004 T02210200 10246 20221
KARM 220535Z AUTO 04006KT 10SM OVC013 23/20 A3002 RMK AO2 T02260201
KARM 220515Z AUTO 04006KT 10SM OVC013 23/20 A3002 RMK AO2 T02260202
KARM 220455Z AUTO 04006KT 10SM OVC013 23/20 A3003 RMK AO2 T02260202
KARM 220435Z AUTO 04005KT 10SM BKN013 OVC022 23/20 A3003 RMK AO2 T02260203
KARM 220415Z AUTO 04007KT 10SM BKN018 OVC023 23/21 A3001 RMK AO2 LTG DSNT SE T02280207
KARM 220355Z AUTO 03005KT 10SM OVC018 23/21 A3003 RMK AO2 LTG DSNT SE T02300208
KARM 220335Z AUTO 03003KT 10SM BKN018 23/21 A3004 RMK AO2 LTG DSNT SE T02300208
KARM 220315Z AUTO 05003KT 10SM CLR 23/21 A3004 RMK AO2 LTG DSNT SE T02310210
KARM 220255Z AUTO 06005KT 10SM CLR 23/21 A3001 RMK AO2 T02310210
KARM 220235Z AUTO 05005KT 10SM CLR 23/21 A3000 RMK AO2 LTG DSNT E AND SE T02320212
KARM 220215Z AUTO 05007G15KT 10SM CLR 23/21 A2998 RMK AO2 T02330212
KARM 220155Z AUTO 04011G17KT 10SM CLR 23/21 A2995 RMK AO2 LTG DSNT NE T02330211
KARM 220135Z AUTO 03010KT 10SM SCT028 24/21 A2998 RMK AO2 T02350214
KARM 220115Z AUTO 36005KT 10SM SCT010 SCT015 OVC028 24/22 A3002 RMK AO2 LTG DSNT NE T02400218
KARM 220055Z AUTO 32005KT 10SM SCT010 BKN028 BKN120 25/22 A3003 RMK AO2 LTG DSNT NE T02450219
KARM 220035Z AUTO 01004KT 10SM CLR 25/22 A2999 RMK AO2 LTG DSNT NE AND E T02460218
KARM 220015Z AUTO 05004KT 10SM CLR 24/22 A2998 RMK AO2 LTG DSNT NE AND SW T02430218
KARM 212355Z AUTO 01005KT 10SM SCT034 25/22 A3000 RMK AO2 LTG DSNT E 6//// T02450218
KARM 212335Z AUTO 02005KT 10SM CLR 24/22 A2999 RMK AO2 T02440220
KARM 212315Z AUTO 01004KT 10SM CLR 25/23 A2996 RMK AO2 LTG DSNT W T02460226
KARM 212255Z AUTO 02003KT 7SM -RA CLR 24/23 A2996 RMK AO2 P0002 T02400225
KARM 212235Z AUTO 35005KT 7SM -DZ CLR 24/22 A2998 RMK AO2 P0001 T02400222
KARM 212215Z AUTO 34004KT 10SM -RA CLR 24/22 A2998 RMK AO2 P0001 T02400221
KARM 212155Z AUTO 02003KT 10SM -RA CLR 24/22 A2996 RMK AO2 T02370220
KARM 212135Z AUTO 03004KT 10SM -TSRA CLR A2996 RMK AO2 LTG DSNT N AND NW
KARM 212115Z AUTO 34007KT 10SM CLR 24/22 A2998 RMK AO2 LTG DSNT E AND W T02420223
KARM 212055Z AUTO 04003KT 10SM VCTS CLR 24/22 A2997 RMK AO2 LTG DSNT SW THRU NW 60001 T02430224
KARM 212035Z AUTO 00000KT 10SM TS CLR 25/23 A3000 RMK AO2 LTG DSNT SW THRU N T02460225
KARM 212015Z AUTO 31006KT 10SM -VCTSRA CLR 24/22 A3001 RMK AO2 LTG DSNT ALQS T02430221
KARM 211955Z AUTO 33007KT 10SM -TSRA SCT036 SCT048 SCT060 25/22 A2997 RMK AO2 LTG DSNT SW THRU N P0001 T02530217
KARM 211935Z AUTO 00000KT 10SM TSRA SCT028 SCT038 BKN047 26/21 A2997 RMK AO2 LTG DSNT ALQS P0001 T02600211
KARM 211915Z AUTO 12006KT 10SM -TSRA SCT047 SCT065 SCT075 27/21 A3000 RMK AO2 LTG DSNT ALQS T02710210
KARM 211855Z AUTO 13012KT 10SM -VCTSRA SCT042 SCT049 SCT065 29/21 A2995 RMK AO2 LTG DSNT ALQS T02860206
KARM 211835Z AUTO 13013KT 10SM BKN033 BKN041 BKN065 30/20 A2996 RMK AO2 LTG DSNT NE SW AND W T02950202
KARM 211815Z AUTO 13011KT 10SM BKN033 BKN040 30/21 A2998 RMK AO2 LTG DSNT SW T03010207
KARM 211755Z AUTO 09006KT 10SM SCT029 SCT037 31/20 A2998 RMK AO2 LTG DSNT E AND SE T03060204 10312 20233
KARM 211735Z AUTO 04006KT 10SM SCT029 SCT035 30/21 A3000 RMK AO2 LTG DSNT E THRU SW T03040214
KARM 211715Z AUTO 06006KT 10SM SCT020 SCT025 SCT037 31/22 A3001 RMK AO2 LTG DSNT E AND SE T03050217


Page loaded:  04:59 UTC  |   09:59 PM Pacific  |   10:59 PM Mountain  |   11:59 PM Central  |   12:59 AM Eastern

 

ADVISORIES

FORECASTS

FORECASTS

OBSERVATIONS

USER TOOLS

ABOUT US